createdAt,value
2017-06-27T00:02:13.864Z,15.77
2017-06-27T00:04:42.027Z,15.60
2017-06-27T00:07:10.228Z,16.23
2017-06-27T00:09:38.447Z,16.23
2017-06-27T00:12:07.422Z,15.53
2017-06-27T00:14:35.599Z,16.00
2017-06-27T00:17:04.560Z,15.47
2017-06-27T00:19:32.821Z,16.23
2017-06-27T00:22:00.995Z,16.00
2017-06-27T00:24:29.170Z,16.60
2017-06-27T00:26:57.354Z,14.83
2017-06-27T00:29:25.528Z,15.30
2017-06-27T00:31:53.731Z,15.40
2017-06-27T00:34:22.686Z,14.10
2017-06-27T00:36:50.853Z,14.43
2017-06-27T00:39:19.064Z,15.10
2017-06-27T00:41:47.246Z,15.50
2017-06-27T00:44:16.198Z,16.40
2017-06-27T00:46:44.433Z,16.30
2017-06-27T00:49:12.624Z,15.37
2017-06-27T00:51:40.787Z,16.50
2017-06-27T00:54:08.996Z,16.53
2017-06-27T00:56:37.179Z,16.30
2017-06-27T00:59:05.421Z,17.27
2017-06-27T01:01:33.623Z,14.30
2017-06-27T01:04:01.807Z,16.10
2017-06-27T01:06:29.996Z,14.50
2017-06-27T01:08:58.963Z,14.63
2017-06-27T01:11:27.143Z,13.37
2017-06-27T01:13:55.384Z,14.40
2017-06-27T01:16:23.559Z,14.70
2017-06-27T01:18:51.775Z,14.80
2017-06-27T01:21:20.070Z,15.90
2017-06-27T01:23:49.026Z,15.57
2017-06-27T01:26:17.242Z,15.23
2017-06-27T01:28:46.171Z,14.20
2017-06-27T01:31:14.336Z,14.30
2017-06-27T01:33:42.565Z,14.90
2017-06-27T01:36:11.583Z,14.80
2017-06-27T01:38:39.761Z,14.97
2017-06-27T01:41:08.025Z,14.00
2017-06-27T01:43:36.206Z,14.47
2017-06-27T01:46:04.391Z,13.20
2017-06-27T01:48:32.575Z,14.20
2017-06-27T01:51:00.730Z,14.23
2017-06-27T01:53:28.925Z,14.47
2017-06-27T01:55:57.094Z,14.63
2017-06-27T01:58:25.292Z,14.00
2017-06-27T02:00:53.534Z,14.60
2017-06-27T02:03:21.715Z,15.13
2017-06-27T02:05:49.894Z,14.67
2017-06-27T02:08:18.126Z,14.47
2017-06-27T02:10:47.058Z,14.80
2017-06-27T02:13:15.256Z,14.00
2017-06-27T02:15:43.501Z,13.60
2017-06-27T02:18:11.654Z,14.20
2017-06-27T02:20:39.835Z,14.50
2017-06-27T02:23:08.060Z,14.60
2017-06-27T02:25:36.232Z,13.00
2017-06-27T02:28:04.632Z,13.17
2017-06-27T02:30:33.617Z,14.83
2017-06-27T02:33:02.568Z,15.20
2017-06-27T02:35:30.761Z,14.70
2017-06-27T02:37:58.950Z,13.20
2017-06-27T02:40:27.879Z,13.63
2017-06-27T02:42:56.135Z,13.80
2017-06-27T02:45:24.291Z,13.83
2017-06-27T02:47:53.323Z,13.97
2017-06-27T02:50:21.534Z,14.40
2017-06-27T02:52:49.714Z,13.77
2017-06-27T02:55:17.885Z,12.87
2017-06-27T02:57:46.094Z,12.77
2017-06-27T03:00:14.267Z,12.80
2017-06-27T03:02:42.447Z,15.73
2017-06-27T03:05:10.659Z,15.97
2017-06-27T03:07:38.836Z,13.97
2017-06-27T03:10:07.008Z,12.50
2017-06-27T03:12:35.268Z,13.10
2017-06-27T03:15:03.564Z,14.03
2017-06-27T03:17:31.768Z,14.20
2017-06-27T03:20:00.001Z,13.87
2017-06-27T03:22:28.231Z,12.93
2017-06-27T03:24:57.163Z,13.00
2017-06-27T03:27:25.386Z,13.50
2017-06-27T03:29:54.323Z,13.20
2017-06-27T03:32:22.532Z,13.43
2017-06-27T03:34:50.708Z,13.23
2017-06-27T03:37:18.896Z,14.10
2017-06-27T03:39:47.856Z,13.60
2017-06-27T03:42:16.120Z,14.47
2017-06-27T03:44:44.294Z,14.53
2017-06-27T03:47:12.494Z,13.57
2017-06-27T03:49:40.718Z,14.47
2017-06-27T03:52:08.910Z,14.90
2017-06-27T03:54:37.086Z,12.67
2017-06-27T03:57:05.291Z,14.43
2017-06-27T03:59:34.232Z,13.70
2017-06-27T04:02:02.635Z,13.93
2017-06-27T04:04:30.822Z,13.87
2017-06-27T04:06:59.006Z,13.60
2017-06-27T04:09:28.350Z,13.10
2017-06-27T04:11:57.066Z,14.77
2017-06-27T04:14:25.546Z,14.27
2017-06-27T04:16:54.517Z,14.70
2017-06-27T04:19:22.727Z,14.73
2017-06-27T04:21:50.938Z,15.07
2017-06-27T04:24:19.152Z,14.70
2017-06-27T04:26:47.320Z,14.43
2017-06-27T04:29:15.517Z,13.63
2017-06-27T04:31:43.726Z,13.80
2017-06-27T04:34:11.979Z,14.33
2017-06-27T04:36:40.139Z,14.83
2017-06-27T04:39:08.356Z,14.50
2017-06-27T04:41:36.656Z,15.07
2017-06-27T04:44:04.859Z,14.87
2017-06-27T04:46:33.127Z,14.23
2017-06-27T04:49:01.454Z,15.60
2017-06-27T04:51:29.638Z,15.33
2017-06-27T04:53:57.865Z,13.60
2017-06-27T04:56:26.175Z,14.53
2017-06-27T04:58:54.355Z,12.67
2017-06-27T05:01:22.611Z,14.37
2017-06-27T05:03:51.576Z,12.37
2017-06-27T05:06:19.922Z,13.93
2017-06-27T05:08:48.150Z,15.57
2017-06-27T05:11:17.102Z,13.47
2017-06-27T05:13:45.336Z,14.10
2017-06-27T05:16:14.291Z,13.47
2017-06-27T05:18:42.477Z,12.10
2017-06-27T05:21:11.436Z,12.63
2017-06-27T05:23:39.655Z,13.03
2017-06-27T05:26:08.595Z,14.60
2017-06-27T05:28:36.798Z,13.50
2017-06-27T05:31:05.757Z,14.00
2017-06-27T05:33:34.022Z,13.00
2017-06-27T05:36:02.239Z,13.43
2017-06-27T05:38:30.437Z,12.93
2017-06-27T05:40:58.831Z,13.27
2017-06-27T05:43:27.026Z,13.03
2017-06-27T05:45:55.205Z,13.47
2017-06-27T05:48:23.440Z,11.83
2017-06-27T05:50:51.622Z,12.50
2017-06-27T05:53:19.815Z,12.13
2017-06-27T05:55:48.019Z,13.60
2017-06-27T05:58:16.202Z,11.53
2017-06-27T06:00:45.158Z,13.63
2017-06-27T06:03:13.337Z,12.77
2017-06-27T06:05:41.516Z,12.87
2017-06-27T06:08:09.764Z,12.10
2017-06-27T06:10:37.935Z,12.37
2017-06-27T06:13:06.134Z,13.17
2017-06-27T06:15:35.503Z,11.90
2017-06-27T06:18:03.696Z,12.33
2017-06-27T06:20:31.882Z,12.87
2017-06-27T06:23:00.078Z,13.03
2017-06-27T06:25:28.254Z,12.17
2017-06-27T06:27:56.456Z,11.83
2017-06-27T06:30:24.644Z,12.37
2017-06-27T06:32:52.827Z,13.50
2017-06-27T06:35:21.043Z,11.57
2017-06-27T06:37:49.306Z,12.30
2017-06-27T06:40:17.463Z,13.03
2017-06-27T06:42:45.652Z,13.30
2017-06-27T06:45:13.856Z,12.43
2017-06-27T06:47:42.814Z,11.80
2017-06-27T06:50:10.988Z,11.90
2017-06-27T06:52:39.199Z,12.23
2017-06-27T06:55:07.506Z,12.97
2017-06-27T06:57:35.650Z,13.60
2017-06-27T07:00:03.865Z,11.67
2017-06-27T07:02:32.087Z,11.83
2017-06-27T07:05:01.054Z,11.40
2017-06-27T07:07:29.274Z,11.47
2017-06-27T07:09:57.456Z,11.80
2017-06-27T07:12:25.667Z,11.40
2017-06-27T07:14:53.843Z,10.67
2017-06-27T07:17:22.098Z,11.60
2017-06-27T07:19:50.324Z,11.40
2017-06-27T07:22:19.273Z,11.90
2017-06-27T07:24:47.488Z,12.27
2017-06-27T07:27:16.443Z,11.80
2017-06-27T07:29:44.613Z,12.00
2017-06-27T07:32:12.829Z,12.57
2017-06-27T07:34:41.764Z,12.20
2017-06-27T07:37:09.972Z,11.30
2017-06-27T07:39:38.167Z,12.37
2017-06-27T07:42:06.370Z,11.47
2017-06-27T07:44:34.542Z,11.30
2017-06-27T07:47:02.808Z,12.37
2017-06-27T07:49:30.995Z,12.37
2017-06-27T07:51:59.163Z,10.97
2017-06-27T07:54:27.387Z,11.87
2017-06-27T07:56:55.579Z,12.23
2017-06-27T07:59:24.519Z,13.13
2017-06-27T08:01:52.747Z,13.47
2017-06-27T08:04:21.717Z,12.33
2017-06-27T08:06:49.920Z,13.10
2017-06-27T08:09:18.091Z,12.00
2017-06-27T08:11:46.289Z,12.10
2017-06-27T08:14:14.499Z,12.53
2017-06-27T08:16:42.672Z,12.00
2017-06-27T08:19:10.843Z,12.47
2017-06-27T08:21:39.073Z,12.03
2017-06-27T08:24:07.253Z,12.27
2017-06-27T08:26:35.459Z,11.83
2017-06-27T08:29:03.636Z,12.10
2017-06-27T08:31:31.848Z,11.80
2017-06-27T08:34:00.810Z,11.83
2017-06-27T08:36:29.007Z,12.10
2017-06-27T08:38:58.042Z,12.10
2017-06-27T08:41:27.129Z,11.80
2017-06-27T08:43:55.330Z,11.30
2017-06-27T08:46:23.511Z,11.50
2017-06-27T08:48:51.727Z,11.70
2017-06-27T08:51:19.950Z,11.13
2017-06-27T08:53:48.135Z,11.10
2017-06-27T08:56:16.322Z,11.23
2017-06-27T08:58:45.321Z,11.20
2017-06-27T09:01:14.260Z,12.53
2017-06-27T09:03:42.441Z,10.70
2017-06-27T09:06:10.660Z,11.70
2017-06-27T09:08:39.619Z,11.60
2017-06-27T09:11:07.825Z,12.57
2017-06-27T09:13:36.804Z,12.20
2017-06-27T09:16:05.752Z,11.30
2017-06-27T09:18:33.940Z,12.67
2017-06-27T09:21:02.117Z,11.70
2017-06-27T09:23:30.457Z,11.60
2017-06-27T09:25:58.679Z,10.70
2017-06-27T09:28:26.864Z,11.60
2017-06-27T09:30:55.189Z,11.27
2017-06-27T09:33:23.334Z,11.40
2017-06-27T09:35:51.651Z,12.00
2017-06-27T09:38:19.876Z,11.67
2017-06-27T09:40:48.835Z,11.93
2017-06-27T09:43:17.009Z,11.50
2017-06-27T09:45:45.232Z,11.73
2017-06-27T09:48:13.440Z,11.20
2017-06-27T09:50:41.612Z,11.10
2017-06-27T09:53:10.156Z,11.83
2017-06-27T09:55:38.344Z,11.70
2017-06-27T09:58:07.435Z,11.07
2017-06-27T10:00:35.655Z,11.30
2017-06-27T10:03:03.814Z,12.50
2017-06-27T10:05:32.032Z,12.90
2017-06-27T10:08:00.258Z,13.40
2017-06-27T10:10:28.458Z,12.87
2017-06-27T10:12:56.635Z,12.17
2017-06-27T10:15:25.617Z,13.43
2017-06-27T10:17:53.795Z,12.00
2017-06-27T10:20:22.740Z,13.17
2017-06-27T10:22:50.951Z,12.30
2017-06-27T10:25:19.128Z,13.17
2017-06-27T10:27:47.299Z,12.80
2017-06-27T10:30:15.691Z,12.00
2017-06-27T10:32:43.861Z,11.87
2017-06-27T10:35:12.883Z,11.70
2017-06-27T10:37:41.072Z,12.80
2017-06-27T10:40:09.243Z,12.00
2017-06-27T10:42:37.464Z,11.83
2017-06-27T10:45:05.643Z,13.20
2017-06-27T10:47:34.684Z,12.33
2017-06-27T10:50:03.100Z,12.23
2017-06-27T10:52:31.283Z,11.10
2017-06-27T10:54:59.471Z,11.20
2017-06-27T10:57:28.471Z,11.87
2017-06-27T10:59:57.459Z,11.77
2017-06-27T11:02:26.475Z,12.40
2017-06-27T11:04:54.659Z,13.40
2017-06-27T11:07:22.834Z,11.60
2017-06-27T11:09:51.047Z,12.40
2017-06-27T11:12:19.217Z,12.13
2017-06-27T11:14:47.406Z,12.30
2017-06-27T11:17:16.381Z,11.57
2017-06-27T11:19:44.585Z,12.13
2017-06-27T11:22:13.573Z,12.77
2017-06-27T11:24:42.569Z,12.53
2017-06-27T11:27:11.508Z,12.87
2017-06-27T11:29:39.681Z,11.53
2017-06-27T11:32:07.909Z,11.23
2017-06-27T11:34:36.879Z,12.90
2017-06-27T11:37:05.070Z,10.90
2017-06-27T11:39:34.068Z,10.37
2017-06-27T11:42:02.307Z,10.30
2017-06-27T11:44:30.473Z,9.13
2017-06-27T11:46:58.641Z,10.57
2017-06-27T11:49:26.826Z,11.83
2017-06-27T11:51:55.010Z,11.57
2017-06-27T11:54:23.235Z,11.53
2017-06-27T11:56:51.453Z,10.40
2017-06-27T11:59:19.624Z,10.87
2017-06-27T12:02:05.741Z,10.77
2017-06-27T12:04:34.789Z,8.63
2017-06-27T12:07:19.985Z,10.90
2017-06-27T12:09:48.163Z,11.60
2017-06-27T12:12:17.151Z,10.93
2017-06-27T12:14:45.353Z,11.23
2017-06-27T12:17:13.551Z,11.03
2017-06-27T12:19:41.888Z,10.20
2017-06-27T12:22:10.900Z,10.00
2017-06-27T12:24:39.074Z,10.73
2017-06-27T12:27:07.292Z,10.43
2017-06-27T12:29:35.535Z,11.40
2017-06-27T12:32:03.704Z,11.73
2017-06-27T12:34:32.007Z,10.03
2017-06-27T12:37:00.231Z,10.60
2017-06-27T12:39:29.167Z,10.77
2017-06-27T12:41:57.359Z,10.50
2017-06-27T12:44:25.533Z,9.30
2017-06-27T12:46:53.742Z,9.53
2017-06-27T12:49:22.256Z,10.00
2017-06-27T12:51:50.430Z,9.27
2017-06-27T12:54:18.613Z,8.53
2017-06-27T12:56:46.799Z,9.23
2017-06-27T12:59:14.975Z,8.70
2017-06-27T13:01:43.191Z,8.70
2017-06-27T13:04:11.496Z,7.33
2017-06-27T13:06:39.665Z,7.80
2017-06-27T13:09:07.855Z,8.23
2017-06-27T13:11:36.039Z,6.73
2017-06-27T13:14:04.227Z,8.10
2017-06-27T13:16:32.438Z,7.13
2017-06-27T13:19:00.607Z,8.00
2017-06-27T13:21:28.783Z,7.97
2017-06-27T13:23:57.002Z,8.60
2017-06-27T13:26:25.197Z,8.40
2017-06-27T13:28:53.359Z,7.73
2017-06-27T13:31:21.601Z,8.37
2017-06-27T13:33:49.795Z,6.90
2017-06-27T13:36:17.998Z,7.17
2017-06-27T13:38:46.975Z,7.63
2017-06-27T13:41:15.213Z,6.80
2017-06-27T13:43:43.385Z,7.53
2017-06-27T13:46:11.570Z,7.33
2017-06-27T13:48:39.787Z,7.83
2017-06-27T13:51:07.952Z,7.90
2017-06-27T13:53:36.139Z,7.30
2017-06-27T13:56:05.138Z,7.50
2017-06-27T13:58:33.305Z,6.87
2017-06-27T14:01:02.267Z,6.80
2017-06-27T14:03:30.551Z,6.73
2017-06-27T14:05:58.731Z,5.40
2017-06-27T14:08:26.929Z,4.60
2017-06-27T14:10:55.909Z,5.30
2017-06-27T14:13:24.864Z,6.67
2017-06-27T14:15:53.036Z,6.93
2017-06-27T14:18:21.256Z,5.97
2017-06-27T14:20:50.207Z,6.77
2017-06-27T14:23:18.413Z,5.87
2017-06-27T14:25:47.392Z,5.30
2017-06-27T14:28:16.332Z,4.97
2017-06-27T14:30:44.532Z,5.73
2017-06-27T14:33:12.802Z,4.77
2017-06-27T14:35:40.979Z,6.07
2017-06-27T14:38:09.155Z,5.60
2017-06-27T14:40:37.385Z,5.80
2017-06-27T14:43:05.567Z,5.97
2017-06-27T14:45:33.757Z,5.20
2017-06-27T14:48:01.980Z,5.13
2017-06-27T14:50:30.928Z,5.43
2017-06-27T14:52:59.113Z,5.67
2017-06-27T14:55:27.311Z,5.67
2017-06-27T14:57:55.490Z,5.70
2017-06-27T15:00:24.486Z,5.23
2017-06-27T15:02:53.437Z,5.40
2017-06-27T15:05:21.611Z,6.10
2017-06-27T15:07:49.851Z,5.93
2017-06-27T15:10:18.210Z,5.77
2017-06-27T15:12:46.404Z,5.53
2017-06-27T15:15:14.639Z,5.43
2017-06-27T15:17:43.604Z,4.73
2017-06-27T15:20:11.876Z,5.23
2017-06-27T15:22:40.085Z,5.27
2017-06-27T15:25:09.018Z,4.60
2017-06-27T15:27:37.216Z,5.10
2017-06-27T15:30:05.461Z,4.20
2017-06-27T15:32:33.654Z,4.17
2017-06-27T15:35:01.836Z,4.60
2017-06-27T15:37:30.038Z,5.20
2017-06-27T15:39:58.993Z,4.67
2017-06-27T15:42:27.242Z,4.70
2017-06-27T15:44:55.439Z,4.63
2017-06-27T15:47:23.615Z,3.97
2017-06-27T15:49:52.780Z,4.40
2017-06-27T15:52:20.980Z,4.70
2017-06-27T15:54:49.168Z,5.00
2017-06-27T15:57:17.332Z,5.50
2017-06-27T15:59:45.551Z,4.77
2017-06-27T16:02:13.828Z,4.87
2017-06-27T16:04:42.046Z,5.90
2017-06-27T16:07:10.225Z,4.73
2017-06-27T16:09:38.448Z,4.93
2017-06-27T16:12:06.595Z,4.70
2017-06-27T16:14:35.538Z,5.33
2017-06-27T16:17:03.738Z,5.50
2017-06-27T16:22:07.220Z,7.07
2017-06-27T16:24:35.489Z,8.13
2017-06-27T16:27:03.651Z,8.30
2017-06-27T16:29:31.848Z,8.17
2017-06-27T16:32:00.054Z,9.03
2017-06-27T16:34:28.292Z,9.17
2017-06-27T16:36:56.469Z,9.00
2017-06-27T16:39:24.689Z,8.40
2017-06-27T16:41:52.879Z,9.23
2017-06-27T16:44:21.150Z,8.70
2017-06-27T16:46:50.141Z,8.60
2017-06-27T16:49:19.100Z,10.53
2017-06-27T16:51:47.318Z,9.13
2017-06-27T16:54:15.478Z,8.47
2017-06-27T16:56:44.429Z,8.57
2017-06-27T16:59:12.733Z,8.30
2017-06-27T17:01:41.703Z,8.60
2017-06-27T17:04:09.880Z,8.70
2017-06-27T17:06:38.103Z,9.20
2017-06-27T17:09:06.314Z,8.20
2017-06-27T17:11:34.515Z,8.50
2017-06-27T17:14:03.639Z,8.93
2017-06-27T17:16:31.858Z,8.07
2017-06-27T17:19:00.047Z,8.53
2017-06-27T17:21:29.096Z,8.30
2017-06-27T17:23:57.295Z,8.70
2017-06-27T17:26:25.487Z,9.60
2017-06-27T17:28:53.693Z,8.60
2017-06-27T17:31:21.885Z,9.33
2017-06-27T17:33:50.141Z,8.80
2017-06-27T17:36:18.519Z,9.50
2017-06-27T17:38:46.703Z,8.90
2017-06-27T17:41:15.118Z,8.87
2017-06-27T17:43:43.311Z,8.30
2017-06-27T17:46:11.547Z,9.00
2017-06-27T17:48:39.834Z,8.80
2017-06-27T17:51:08.039Z,8.93
2017-06-27T17:53:36.264Z,10.07
2017-06-27T17:56:04.485Z,8.60
2017-06-27T17:58:32.779Z,8.80
2017-06-27T18:01:01.742Z,8.90
2017-06-27T18:03:29.952Z,8.40
2017-06-27T18:05:58.196Z,6.73
2017-06-27T18:08:26.378Z,5.63
2017-06-27T18:10:55.365Z,4.47
2017-06-27T18:13:23.596Z,3.57
2017-06-27T18:15:51.830Z,3.20
2017-06-27T18:18:20.841Z,3.27
2017-06-27T18:20:49.052Z,3.63
2017-06-27T18:23:17.260Z,3.57
2017-06-27T18:25:46.243Z,3.40
2017-06-27T18:28:14.451Z,3.40
2017-06-27T18:30:42.690Z,2.90
2017-06-27T18:33:11.604Z,2.60
2017-06-27T18:35:40.610Z,3.30
2017-06-27T18:41:08.626Z,3.40
2017-06-27T18:43:36.833Z,3.87
2017-06-27T18:46:05.013Z,4.20
2017-06-27T18:48:33.193Z,3.73
2017-06-27T18:51:02.134Z,4.53
2017-06-27T18:53:30.306Z,3.70
2017-06-27T18:55:58.476Z,3.67
2017-06-27T18:58:26.678Z,4.00
2017-06-27T19:00:54.862Z,3.77
2017-06-27T19:03:23.110Z,3.27
2017-06-27T19:05:51.295Z,3.47
2017-06-27T19:08:19.486Z,3.77
2017-06-27T19:10:47.625Z,4.10
2017-06-27T19:13:15.846Z,4.07
2017-06-27T19:15:45.142Z,3.90
2017-06-27T19:18:14.086Z,3.53
2017-06-27T19:20:42.229Z,3.90
2017-06-27T19:23:10.414Z,4.10
2017-06-27T19:25:38.607Z,3.60
2017-06-27T19:28:06.785Z,3.97
2017-06-27T19:30:34.972Z,3.90
2017-06-27T19:33:03.141Z,4.37
2017-06-27T19:35:31.341Z,4.80
2017-06-27T19:37:59.526Z,4.37
2017-06-27T19:40:28.477Z,4.90
2017-06-27T19:42:56.734Z,4.23
2017-06-27T19:45:24.905Z,4.50
2017-06-27T19:47:53.129Z,5.63
2017-06-27T19:50:22.078Z,4.60
2017-06-27T19:52:50.252Z,4.10
2017-06-27T19:55:18.410Z,5.40
2017-06-27T19:57:46.617Z,4.97
2017-06-27T20:00:14.845Z,5.40
2017-06-27T20:02:43.828Z,5.60
2017-06-27T20:05:12.781Z,5.90
2017-06-27T20:07:40.972Z,5.90
2017-06-27T20:10:09.127Z,5.90
2017-06-27T20:12:37.315Z,5.40
2017-06-27T20:15:05.495Z,5.47
2017-06-27T20:17:33.832Z,4.87
2017-06-27T20:20:02.030Z,5.17
2017-06-27T20:22:30.215Z,5.70
2017-06-27T20:24:58.441Z,5.33
2017-06-27T20:27:26.617Z,5.80
2017-06-27T20:29:54.798Z,5.50
2017-06-27T20:32:23.021Z,5.30
2017-06-27T20:34:51.981Z,5.70
2017-06-27T20:37:20.199Z,6.27
2017-06-27T20:39:49.130Z,5.40
2017-06-27T20:42:17.324Z,5.80
2017-06-27T20:44:45.481Z,5.60
2017-06-27T20:47:13.684Z,6.63
2017-06-27T20:49:42.487Z,7.50
2017-06-27T20:52:11.437Z,6.40
2017-06-27T20:54:39.657Z,6.27
2017-06-27T20:57:08.586Z,6.00
2017-06-27T20:59:36.754Z,6.60
2017-06-27T21:02:04.927Z,6.30
2017-06-27T21:04:33.078Z,6.80
2017-06-27T21:07:01.289Z,7.40
2017-06-27T21:09:29.470Z,6.40
2017-06-27T21:11:57.709Z,6.90
2017-06-27T21:14:25.866Z,6.13
2017-06-27T21:16:54.045Z,6.80
2017-06-27T21:19:22.226Z,5.67
2017-06-27T21:21:50.388Z,6.60
2017-06-27T21:24:18.565Z,5.97
2017-06-27T21:26:46.773Z,6.10
2017-06-27T21:29:15.039Z,7.33
2017-06-27T21:31:43.191Z,7.23
2017-06-27T21:34:11.376Z,7.10
2017-06-27T21:36:39.557Z,6.90
2017-06-27T21:39:07.748Z,6.80
2017-06-27T21:41:35.920Z,6.80
2017-06-27T21:44:04.129Z,7.40
2017-06-27T21:46:32.410Z,6.40
2017-06-27T21:49:01.358Z,6.63
2017-06-27T21:51:29.526Z,7.27
2017-06-27T21:53:57.706Z,6.87
2017-06-27T21:56:25.883Z,6.77
2017-06-27T21:58:54.050Z,6.90
2017-06-27T22:01:22.226Z,7.50
2017-06-27T22:03:50.421Z,7.20
2017-06-27T22:06:18.586Z,8.00
2017-06-27T22:08:46.778Z,8.20
2017-06-27T22:11:15.795Z,7.13
2017-06-27T22:13:44.762Z,7.03
2017-06-27T22:16:12.953Z,8.90
2017-06-27T22:18:41.868Z,8.30
2017-06-27T22:21:10.066Z,7.30
2017-06-27T22:23:38.323Z,6.87
2017-06-27T22:26:06.466Z,7.83
2017-06-27T22:28:35.398Z,8.00
2017-06-27T22:31:03.587Z,7.80
2017-06-27T22:33:31.834Z,8.67
2017-06-27T22:36:00.015Z,8.47
2017-06-27T22:38:28.198Z,7.30
2017-06-27T22:40:56.374Z,7.17
2017-06-27T22:43:24.614Z,8.43
2017-06-27T22:45:52.791Z,7.80
2017-06-27T22:48:21.012Z,8.20
2017-06-27T22:50:49.186Z,8.20
2017-06-27T22:53:17.377Z,8.40
2017-06-27T22:55:46.298Z,7.33
2017-06-27T22:58:14.470Z,8.37
2017-06-27T23:00:42.621Z,8.93
2017-06-27T23:03:11.530Z,8.47
2017-06-27T23:05:39.723Z,8.20
2017-06-27T23:08:07.877Z,9.03
2017-06-27T23:10:36.062Z,8.00
2017-06-27T23:13:04.289Z,9.33
2017-06-27T23:15:32.465Z,8.70
2017-06-27T23:18:00.618Z,8.90
2017-06-27T23:20:28.804Z,8.87
2017-06-27T23:22:56.973Z,9.00
2017-06-27T23:25:25.162Z,8.70
2017-06-27T23:27:53.312Z,9.03
2017-06-27T23:30:21.462Z,9.27
2017-06-27T23:32:49.649Z,9.00
2017-06-27T23:35:17.798Z,8.10
2017-06-27T23:37:45.986Z,8.87
2017-06-27T23:40:14.148Z,8.17
2017-06-27T23:42:42.293Z,8.70
2017-06-27T23:45:10.478Z,9.30
2017-06-27T23:47:38.659Z,8.83
2017-06-27T23:50:06.849Z,8.60
2017-06-27T23:52:35.050Z,9.60
2017-06-27T23:55:03.209Z,9.93
2017-06-27T23:57:31.375Z,9.33
2017-06-27T23:59:59.529Z,8.47
